Flight Track Log - Related Links

Times and Time Zones

All times are in EDT time to prevent confusion due to time zone crossing. See the TMC875 flight status page for this flight to view local times or setup timezone preferences in your user account.


Time Position Orientation Groundspeed Altitude Reporting Facility
EDT Latitude Longitude Course Direction KTS MPH feet Rate Location/Type
Wed 05:42:42 PM 40.8061 -111.9653 77° East 192 221 5,000  Level Salt Lake Center
Wed 05:43:31 PM 40.8544 -111.9714 355° North 211 243 7,000 2,242 Climbing Salt Lake Center
Wed 05:44:13 PM 40.8922 -111.9753 356° North 220 253 8,400 2,459 Climbing Salt Lake Center
Wed 05:44:32 PM 40.9208 -111.9803 352° North 246 283 9,500 2,613 Climbing Salt Lake Center
Wed 05:45:15 PM 40.9661 -111.9850 355° North 264 304 11,100 2,400 Climbing Salt Lake Center
Wed 05:46:17 PM 41.0375 -111.9442 23° Northeast 288 331 13,700 2,323 Climbing Salt Lake Center
Wed 05:47:19 PM 41.0603 -111.8244 76° East 323 372 15,900 2,177 Climbing Salt Lake Center
Wed 05:48:00 PM 40.9500 -111.0549 77° East  Level Estimated
Wed 05:48:21 PM 41.0617 -111.6936 89° East 346 398 18,200  Level Salt Lake Center
Wed 05:49:23 PM 41.0875 -111.5719 74° East 343 395 20,700 2,177 Climbing Salt Lake Center
Wed 05:50:25 PM 41.1150 -111.4469 74° East 353 406 22,700 1,839 Climbing Salt Lake Center
Wed 05:51:27 PM 41.1461 -111.2886 75° East 374 430 24,500 1,790 Climbing Salt Lake Center
Wed 05:52:29 PM 41.1733 -111.1486 75° East 391 450 26,400 1,694 Climbing Salt Lake Center
Wed 05:53:31 PM 41.2019 -111.0081 75° East 396 456 28,000 1,210 Climbing Salt Lake Center
Wed 05:54:33 PM 41.2331 -110.8594 74° East 407 468 28,900 488 Climbing Salt Lake Center
Wed 05:55:34 PM 41.2692 -110.6822 75° East 442 509 29,000 48 Climbing Salt Lake Center
Wed 05:56:37 PM 41.2994 -110.5281 75° East 449 517 29,000 -48 Level Salt Lake Center
Wed 05:57:38 PM 41.3314 -110.3761 74° East 446 513 28,900  Descending Salt Lake Center
Wed 05:58:40 PM 41.3653 -110.2011 75° East 439 505 29,000 48 Climbing Salt Lake Center
Wed 05:59:42 PM 41.3942 -110.0492 76° East 442 509 29,000  Level Salt Lake Center
Wed 06:00:43 PM 41.4294 -109.8722 75° East 444 511 29,000  Level Salt Lake Center
Wed 06:01:45 PM 41.4589 -109.7181 76° East 447 514 29,000  Level Salt Lake Center
Wed 06:02:47 PM 41.4933 -109.5361 76° East 451 519 29,000  Level Salt Lake Center
Wed 06:03:49 PM 41.5236 -109.3794 75° East 453 521 29,000  Level Salt Lake Center
Wed 06:04:50 PM 41.5536 -109.2194 76° East 457 526 29,000  Level Salt Lake Center
Wed 06:05:52 PM 41.5883 -109.0311 76° East 457 526 29,000  Level Salt Lake Center
Wed 06:06:54 PM 41.6125 -108.8697 79° East 458 527 29,000  Level Salt Lake Center
Wed 06:07:56 PM 41.6364 -108.7108 79° East 456 525 29,000  Level Salt Lake Center
Wed 06:08:57 PM 41.6614 -108.5364 79° East 434 499 29,000  Level Salt Lake Center
Wed 06:09:59 PM 41.6828 -108.3844 79° East 434 499 29,000  Level Salt Lake Center
Wed 06:11:01 PM 41.7089 -108.2072 79° East 435 501 29,000 48 Level Salt Lake Center
Wed 06:12:03 PM 41.7311 -108.0544 79° East 439 505 29,100 48 Climbing Salt Lake Center
Wed 06:13:05 PM 41.7556 -107.8794 79° East 431 496 29,100  Level Salt Lake Center
Wed 06:13:28 PM 41.7625 -107.8264 80° East 435 501 29,100 424 Level Denver Center
Wed 06:14:30 PM 41.7869 -107.6475 80° East 437 503 29,700 1,065 Climbing Denver Center
Wed 06:15:32 PM 41.8072 -107.4978 80° East 431 496 31,300 1,403 Climbing Denver Center
Wed 06:16:34 PM 41.8269 -107.3475 80° East 429 494 32,600 1,403 Climbing Denver Center
Wed 06:17:36 PM 41.8500 -107.1719 80° East 429 494 34,200 1,452 Climbing Denver Center
Wed 06:18:38 PM 41.8694 -107.0256 80° East 419 482 35,600 1,355 Climbing Denver Center
Wed 06:19:40 PM 41.8925 -106.8578 79° East 411 473 37,000 1,210 Climbing Denver Center
Wed 06:20:42 PM 41.9092 -106.7144 81° East 407 468 38,100 968 Climbing Denver Center
Wed 06:21:44 PM 41.9308 -106.5511 80° East 400 460 39,000 629 Climbing Denver Center
Wed 06:22:46 PM 41.9464 -106.4397 79° East 402 463 39,400 581 Climbing Denver Center
Wed 06:23:48 PM 41.9686 -106.2489 81° East 404 465 40,200 774 Climbing Denver Center
Wed 06:24:50 PM 41.9892 -106.0839 80° East 403 464 41,000 387 Climbing Denver Center
Wed 06:25:52 PM 42.0069 -105.9431 80° East 400 460 41,000  Level Denver Center
Wed 06:26:54 PM 42.0233 -105.7953 81° East 413 475 41,000  Level Denver Center
Wed 06:27:56 PM 42.0461 -105.6203 80° East 424 488 41,000  Level Denver Center
Wed 06:28:58 PM 42.0639 -105.4644 81° East 438 504 41,000  Level Denver Center
Wed 06:30:00 PM 42.0842 -105.2806 81° East 444 511 41,000  Level Denver Center
Wed 06:31:02 PM 42.1031 -105.1228 81° East 447 514 41,000  Level Denver Center
Wed 06:32:05 PM 42.1239 -104.9353 81° East 453 521 41,000  Level Denver Center
Wed 06:33:07 PM 42.1408 -104.7756 82° East 454 522 41,000  Level Denver Center
Wed 06:34:08 PM 42.1619 -104.5908 81° East 449 517 41,000  Level Denver Center
Wed 06:35:11 PM 42.1783 -104.4308 82° East 452 520 41,000  Level Denver Center
Wed 06:36:13 PM 42.1989 -104.2433 82° East 455 524 41,000  Level Denver Center
Wed 06:37:15 PM 42.2156 -104.0817 82° East 457 526 41,000  Level Denver Center
Wed 06:38:17 PM 42.2356 -103.8922 82° East 459 528 41,000  Level Denver Center
Wed 06:39:19 PM 42.2519 -103.7317 82° East 456 525 41,000  Level Denver Center
Wed 06:40:21 PM 42.2708 -103.5406 82° East 460 529 41,000  Level Denver Center
Wed 06:41:23 PM 42.2881 -103.3775 82° East 460 529 41,000  Level Denver Center
Wed 06:42:25 PM 42.3044 -103.1875 83° East 457 526 41,000  Level Denver Center
Wed 06:43:27 PM 42.3206 -103.0244 82° East 458 527 41,000  Level Denver Center
Wed 06:44:29 PM 42.3411 -102.8317 82° East 464 534 41,000  Level Denver Center
Wed 06:45:31 PM 42.3556 -102.6692 83° East 459 528 41,000  Level Denver Center
Wed 06:46:33 PM 42.3733 -102.4769 83° East 461 531 41,000  Level Denver Center
Wed 06:47:35 PM 42.3878 -102.3122 83° East 461 531 41,000  Level Denver Center
Wed 06:48:37 PM 42.4042 -102.1206 83° East 460 529 41,000  Level Denver Center
Wed 06:49:39 PM 42.4189 -101.9564 83° East 459 528 41,000  Level Denver Center
Wed 06:50:41 PM 42.4333 -101.7786 84° East 460 529 41,000  Level Denver Center
Wed 06:51:43 PM 42.4497 -101.5864 83° East 459 528 41,000  Level Denver Center
Wed 06:52:45 PM 42.4628 -101.4203 84° East 462 532 41,000  Level Denver Center
Wed 06:53:47 PM 42.4764 -101.2550 84° East 462 532 41,000  Level Denver Center
Wed 06:54:49 PM 42.4908 -101.0625 84° East 461 531 41,000  Level Denver Center
Wed 06:55:52 PM 42.5036 -100.8972 84° East 459 528 41,000  Level Denver Center
Wed 06:56:54 PM 42.5175 -100.7047 84° East 462 532 41,000  Level Denver Center
Wed 06:57:56 PM 42.5306 -100.5378 84° East 463 533 41,000  Level Denver Center
Wed 06:59:05 PM 42.5442 -100.3447 84° East 463 533 41,000  Level Minneapolis Center
Wed 07:00:00 PM 42.5553 -100.1778 85° East 464 534 41,000  Level Denver Center
Wed 07:01:02 PM 42.5689 -99.9969 84° East 463 533 41,000  Level Denver Center
Wed 07:02:04 PM 42.5833 -99.8222 84° East 465 535 41,000  Level Denver Center
Wed 07:03:14 PM 42.6017 -99.6136 83° East 466 536 41,000  Level Minneapolis Center
Wed 07:04:16 PM 42.6161 -99.4372 84° East 468 539 41,000  Level Minneapolis Center
Wed 07:05:18 PM 42.6311 -99.2603 83° East 470 541 41,000  Level Minneapolis Center
Wed 07:06:20 PM 42.6450 -99.0811 84° East 472 543 41,000  Level Minneapolis Center
Wed 07:07:22 PM 42.6606 -98.8733 84° East 465 535 41,000  Level Minneapolis Center
Wed 07:08:24 PM 42.6744 -98.6967 84° East 468 539 41,000  Level Minneapolis Center
Wed 07:09:26 PM 42.6883 -98.5189 84° East 470 541 41,000  Level Minneapolis Center
Wed 07:10:28 PM 42.7008 -98.3417 84° East 471 542 41,000  Level Minneapolis Center
Wed 07:11:30 PM 42.7133 -98.1739 84° East 474 545 41,000  Level Minneapolis Center
Wed 07:12:32 PM 42.7278 -97.9606 85° East 474 545 41,000  Level Minneapolis Center
Wed 07:13:34 PM 42.7397 -97.7822 85° East 475 547 41,000  Level Minneapolis Center
Wed 07:14:37 PM 42.7522 -97.6061 84° East 472 543 41,000  Level Minneapolis Center
Wed 07:15:39 PM 42.7636 -97.4275 85° East 474 545 41,000  Level Minneapolis Center
Wed 07:16:41 PM 42.7747 -97.2494 85° East 474 545 41,000  Level Minneapolis Center
Wed 07:17:43 PM 42.7881 -97.0356 85° East 475 547 41,000  Level Minneapolis Center
Wed 07:18:45 PM 42.7989 -96.8578 85° East 475 547 41,000  Level Minneapolis Center
Wed 07:19:47 PM 42.8094 -96.6808 85° East 473 544 41,000  Level Minneapolis Center
Wed 07:20:49 PM 42.8200 -96.5019 85° East 475 547 41,000  Level Minneapolis Center
Wed 07:21:51 PM 42.8289 -96.3258 86° East 472 543 41,000  Level Minneapolis Center
Wed 07:22:53 PM 42.8389 -96.1464 86° East 475 547 41,000  Level Minneapolis Center
Wed 07:23:55 PM 42.8497 -95.9322 86° East 475 547 41,000  Level Minneapolis Center
Wed 07:24:57 PM 42.8589 -95.7542 86° East 474 545 41,000  Level Minneapolis Center
Wed 07:25:59 PM 42.8669 -95.5769 86° East 472 543 41,000  Level Minneapolis Center
Wed 07:27:01 PM 42.8758 -95.3978 86° East 475 547 41,000  Level Minneapolis Center
Wed 07:28:03 PM 42.8839 -95.2203 86° East 474 545 41,000  Level Minneapolis Center
Wed 07:29:06 PM 42.8939 -95.0050 86° East 475 547 41,000  Level Minneapolis Center
Wed 07:30:08 PM 42.9008 -94.8272 87° East 474 545 41,000  Level Minneapolis Center
Wed 07:31:10 PM 42.9083 -94.6475 87° East 476 548 41,000  Level Minneapolis Center
Wed 07:32:12 PM 42.9156 -94.4617 87° East 482 555 41,000  Level Minneapolis Center
Wed 07:33:14 PM 42.9225 -94.2842 87° East 475 547 41,000  Level Minneapolis Center
Wed 07:34:16 PM 42.9264 -94.1047 88° East 477 549 41,000  Level Minneapolis Center
Wed 07:35:18 PM 42.9336 -93.8892 87° East 478 550 41,000  Level Minneapolis Center
Wed 07:36:20 PM 42.9400 -93.7100 87° East 478 550 41,000  Level Minneapolis Center
Wed 07:37:22 PM 42.9453 -93.5292 88° East 480 552 41,000  Level Minneapolis Center
Wed 07:38:24 PM 42.9519 -93.3492 87° East 481 554 41,000  Level Minneapolis Center
Wed 07:39:26 PM 42.9578 -93.1678 87° East 481 554 41,000  Level Minneapolis Center
Wed 07:40:28 PM 42.9631 -92.9517 88° East 481 554 41,000  Level Minneapolis Center
Wed 07:41:30 PM 42.9675 -92.7703 88° East 480 552 41,000  Level Minneapolis Center
Wed 07:42:32 PM 42.9719 -92.5889 88° East 482 555 41,000  Level Minneapolis Center
Wed 07:43:39 PM 42.9750 -92.3739 89° East 479 551 41,000  Level Chicago Center
Wed 07:44:41 PM 42.9786 -92.1947 88° East 477 549 41,000  Level Chicago Center
Wed 07:45:38 PM 42.9825 -92.0489 88° East 478 550 41,000  Level Minneapolis Center
Wed 07:46:46 PM 42.9856 -91.8297 89° East 481 554 41,000  Level Chicago Center
Wed 07:47:48 PM 42.9889 -91.6447 89° East 484 557 41,000  Level Chicago Center
Wed 07:48:45 PM 42.9919 -91.4567 89° East 486 559 41,000  Level Minneapolis Center
Wed 07:49:47 PM 42.9936 -91.2714 89° East 487 560 41,000  Level Minneapolis Center
Wed 07:50:49 PM 42.9953 -91.0858 89° East 489 563 41,000  Level Minneapolis Center
Wed 07:51:56 PM 42.9981 -90.8658 89° East 491 565 41,000  Level Chicago Center
Wed 07:52:58 PM 42.9986 -90.6814 90° East 490 564 41,000  Level Chicago Center
Wed 07:54:00 PM 42.9997 -90.4978 89° East 488 562 41,000  Level Chicago Center
Wed 07:55:02 PM 42.9994 -90.3128 90° East 489 563 41,000  Level Chicago Center
Wed 07:56:04 PM 43.0000 -90.0906 90° East 492 566 41,000  Level Chicago Center
Wed 07:57:06 PM 42.9986 -89.9119 91° East 492 566 41,000  Level Chicago Center
Wed 07:58:08 PM 42.9989 -89.7264 90° East 490 564 41,000  Level Chicago Center
Wed 07:59:11 PM 42.9978 -89.5097 90° East 490 564 41,000  Level Chicago Center
Wed 08:00:13 PM 42.9972 -89.3247 90° East 489 563 41,000  Level Chicago Center
Wed 08:01:15 PM 42.9956 -89.1386 91° East 489 563 41,000  Level Chicago Center
Wed 08:02:17 PM 42.9944 -88.9533 90° East 491 565 41,000  Level Chicago Center
Wed 08:03:19 PM 42.9922 -88.7672 91° East 491 565 41,000  Level Chicago Center
Wed 08:04:21 PM 42.9889 -88.5511 91° East 490 564 41,000  Level Chicago Center
Wed 08:05:24 PM 42.9867 -88.3642 91° East 496 571 41,000  Level Chicago Center
Wed 08:06:26 PM 42.9847 -88.1794 91° East 491 565 41,000  Level Chicago Center
Wed 08:07:28 PM 42.9808 -87.9936 92° East 491 565 41,000  Level Chicago Center
Wed 08:08:30 PM 42.9767 -87.7794 91° East 487 560 41,000  Level Chicago Center
Wed 08:09:32 PM 42.9733 -87.5936 91° East 490 564 41,000  Level Chicago Center
Wed 08:10:34 PM 42.9686 -87.4097 92° East 486 559 41,000  Level Chicago Center
Wed 08:11:36 PM 42.9642 -87.2186 92° East 492 566 41,000  Level Chicago Center
Wed 08:12:38 PM 42.9603 -87.0361 92° East 484 557 41,000  Level Chicago Center
Wed 08:13:40 PM 42.9553 -86.8569 92° East 477 549 41,000  Level Chicago Center
Wed 08:14:42 PM 42.9503 -86.6772 92° East 475 547 41,000  Level Chicago Center
Wed 08:15:44 PM 42.9433 -86.4611 92° East 478 550 41,000  Level Chicago Center
Wed 08:16:46 PM 42.9372 -86.2831 93° East 475 547 41,000  Level Chicago Center
Wed 08:17:48 PM 42.9300 -86.1047 93° East 478 550 41,000  Level Chicago Center
Wed 08:18:51 PM 42.9236 -85.9267 93° East 487 560 41,000  Level Chicago Center
Wed 08:19:53 PM 42.9172 -85.7117 92° East 482 555 41,000  Level Chicago Center
Wed 08:20:55 PM 42.9111 -85.5303 93° East 484 557 41,000  Level Chicago Center
Wed 08:21:57 PM 42.9033 -85.3506 93° East 478 550 41,000  Level Chicago Center
Wed 08:22:59 PM 42.8967 -85.1683 93° East 480 552 41,000  Level Chicago Center
Wed 08:24:01 PM 42.8881 -84.9875 94° East 480 552 41,000  Level Chicago Center
Wed 08:25:03 PM 42.8789 -84.7692 93° East 479 551 41,000  Level Chicago Center
Wed 08:26:05 PM 42.8700 -84.5881 94° East 480 552 41,000  Level Chicago Center
Wed 08:27:07 PM 42.8619 -84.4058 93° East 482 555 41,000  Level Chicago Center
Wed 08:28:09 PM 42.8536 -84.2233 94° East 483 556 41,000  Level Chicago Center
Wed 08:29:11 PM 42.8439 -84.0408 94° East 483 556 41,000  Level Chicago Center
Wed 08:30:21 PM 42.8272 -83.8247 96° East 482 555 41,000  Level Cleveland Center
Wed 08:31:21 PM 42.8197 -83.6431 93° East 482 555 41,000  Level Cleveland Center
Wed 08:32:21 PM 42.8097 -83.4644 94° East 482 555 41,000  Level Cleveland Center
Wed 08:33:21 PM 42.7994 -83.2828 94° East 482 555 41,000  Level Cleveland Center
Wed 08:34:21 PM 42.7869 -83.1011 95° East 482 555 41,000  Level Cleveland Center
Wed 08:35:21 PM 42.7761 -82.9197 95° East 482 555 41,000  Level Cleveland Center
Wed 08:37:21 PM 42.7539 -82.5597 95° East 482 555 41,000  Level Cleveland Center
Wed 08:38:21 PM 42.7422 -82.3783 95° East 482 555 41,000  Level Cleveland Center
Wed 08:39:21 PM 42.7281 -82.1969 96° East 482 555 41,000  Level Cleveland Center
Wed 08:40:21 PM 42.7222 -82.0161 92° East 482 555 41,000  Level Cleveland Center
Wed 08:41:21 PM 42.7431 -81.8356 81° East 475 547 41,000  Level Cleveland Center
Wed 08:42:21 PM 42.7389 -81.6406 92° East 470 541 41,000  Level Cleveland Center
Wed 08:43:21 PM 42.7361 -81.4764 91° East 470 541 41,000  Level Cleveland Center
Wed 08:44:21 PM 42.7311 -81.2897 92° East 479 551 41,000  Level Cleveland Center
Wed 08:45:21 PM 42.7236 -81.1061 93° East 484 557 41,000 -300 Level Cleveland Center
Wed 08:46:21 PM 42.7203 -80.9250 91° East 484 557 40,400 -750 Descending Cleveland Center
Wed 08:47:21 PM 42.7144 -80.7414 92° East 484 557 39,500 -700 Descending Cleveland Center
Wed 08:48:21 PM 42.7061 -80.5322 93° East 489 563 39,000 -250 Descending Cleveland Center
Wed 08:49:21 PM 42.7017 -80.3431 92° East 503 579 39,000  Level Cleveland Center
Wed 08:50:21 PM 42.6928 -80.1511 94° East 497 572 39,000  Level Cleveland Center
Wed 08:51:21 PM 42.6900 -79.9617 91° East 502 578 39,000  Level Cleveland Center
Wed 08:52:21 PM 42.6803 -79.7725 94° East 500 575 39,000  Level Cleveland Center
Wed 08:53:21 PM 42.6728 -79.5836 93° East 500 575 39,000  Level Cleveland Center
Wed 08:54:21 PM 42.6647 -79.3972 93° East 500 575 39,000  Level Cleveland Center
Wed 08:55:21 PM 42.6583 -79.2111 93° East 495 570 39,000  Level Cleveland Center
Wed 08:56:21 PM 42.6478 -79.0222 94° East 495 570 39,000  Level Cleveland Center
Wed 08:57:21 PM 42.6389 -78.8361 94° East 500 575 39,000  Level Cleveland Center
Wed 08:58:21 PM 42.6294 -78.6500 94° East 495 570 39,000  Level Cleveland Center
Wed 08:59:21 PM 42.6200 -78.4614 94° East 495 570 39,000  Level Cleveland Center
Wed 09:00:21 PM 42.6103 -78.2756 94° East 495 570 39,000  Level Cleveland Center
Wed 09:01:21 PM 42.5978 -78.0869 95° East 495 570 39,000  Level Cleveland Center
Wed 09:02:21 PM 42.5875 -77.9011 94° East 495 570 39,000 -50 Level Cleveland Center
Wed 09:03:21 PM 42.5789 -77.7183 94° East 495 570 38,900  Descending Cleveland Center
Wed 09:04:21 PM 42.5678 -77.5328 95° East 495 570 39,000 33 Climbing Cleveland Center
Wed 09:06:23 PM 42.5417 -77.1694 95° East 519 597 39,000  Level Boston Center
Wed 09:07:23 PM 42.5303 -76.9883 95° East 496 571 39,000 -850 Level Boston Center
Wed 09:08:23 PM 42.5169 -76.7983 95° East 481 554 37,300 -2,200 Descending Boston Center
Wed 09:09:23 PM 42.5053 -76.6089 95° East 481 554 34,600 -2,150 Descending Boston Center
Wed 09:10:23 PM 42.4867 -76.4244 98° East 481 554 33,000 -800 Descending Boston Center
Wed 09:11:23 PM 42.4514 -76.2447 105° East 475 547 33,000 -500 Level Boston Center
Wed 09:12:23 PM 42.4133 -76.0625 106° East 492 566 32,000 -1,000 Descending Boston Center
Wed 09:13:23 PM 42.3772 -75.8861 105° East 500 575 31,000 -1,050 Descending Boston Center
Wed 09:14:23 PM 42.3369 -75.7011 106° East 505 581 29,900 -2,400 Descending Boston Center
Wed 09:15:23 PM 42.3022 -75.5281 105° East 498 573 26,200 -3,050 Descending Boston Center
Wed 09:16:23 PM 42.2650 -75.3550 106° East 491 565 23,800 -2,400 Descending Boston Center
Wed 09:17:23 PM 42.2314 -75.1936 106° East 466 536 21,400 -2,350 Descending Boston Center
Wed 09:18:23 PM 42.1972 -75.0550 108° East 426 490 19,100 -1,700 Descending Boston Center
Wed 09:19:23 PM 42.1589 -74.9131 110° East 405 466 18,000 -550 Descending Boston Center
Wed 09:20:23 PM 42.1053 -74.7853 119° Southeast 393 452 18,000 -150 Level Boston Center
Wed 09:21:23 PM 42.0494 -74.6572 120° Southeast 393 452 17,700 -1,500 Descending Boston Center
Wed 09:22:23 PM 41.9936 -74.5183 118° Southeast 393 452 15,000 -2,300 Descending Boston Center
Wed 09:23:23 PM 41.9456 -74.4108 121° Southeast 380 437 13,100 -1,000 Descending Boston Center
Wed 09:24:23 PM 41.8917 -74.2781 119° Southeast 367 422 13,000 -50 Descending Boston Center
Wed 09:25:23 PM 41.8453 -74.1764 121° Southeast 367 422 13,000  Level Boston Center
Wed 09:26:23 PM 41.7628 -74.1044 147° Southeast 345 397 13,000 -100 Level Boston Center
Wed 09:27:23 PM 41.6636 -74.0575 161° South 345 397 12,800 -1,350 Descending Boston Center
Wed 09:28:23 PM 41.5869 -74.0222 161° South 335 386 10,300 -3,068 Descending Boston Center
Wed 09:29:36 PM 41.4833 -73.9833 164° South 264 304 6,000 -2,932 Descending New York TRACON
Wed 09:30:36 PM 41.4167 -73.9500 159° South 260 299 3,800 -1,500 Descending New York TRACON
Wed 09:31:36 PM 41.3667 -73.9167 153° Southeast 217 250 3,000 -400 Descending New York TRACON
Wed 09:32:36 PM 41.3000 -73.8833 159° South 203 234 3,000  Level New York TRACON
Wed 09:33:36 PM 41.2667 -73.8500 143° Southeast 181 208 3,000  Level New York TRACON
Wed 09:34:36 PM 41.2167 -73.8167 153° Southeast 180 207 3,000 -200 Level New York TRACON
Wed 09:35:36 PM 41.1667 -73.7833 153° Southeast 183 211 2,600 -550 Descending New York TRACON
Wed 09:36:36 PM 41.1333 -73.7667 159° South 129 148 1,900 -650 Descending New York TRACON
Wed 09:37:36 PM 41.1167 -73.7333 124° Southeast 120 138 1,300 -600 Descending New York TRACON
Wed 09:38:36 PM 41.0833 -73.7167 159° South 117 135 700 -600 Descending New York TRACON
Wed 09:40:00 PM 41.0667 -73.7000 246° West  Level FlightAware Approximate

Login

Don't have an account? Register now (free) for customized features, flight alerts, and more!